sensor_id;sensor_type;location;lat;lon;timestamp;P1;P2;P0
66149;PMS5003;52952;50.904;20.648;2022-08-03T00:00:15;42;37;26
66149;PMS5003;52952;50.904;20.648;2022-08-03T00:07:04;42;37;25
66149;PMS5003;52952;50.904;20.648;2022-08-03T00:14:06;42;37;25
66149;PMS5003;52952;50.904;20.648;2022-08-03T00:21:19;42;37;25
66149;PMS5003;52952;50.904;20.648;2022-08-03T00:28:17;42;37;25
66149;PMS5003;52952;50.904;20.648;2022-08-03T00:35:13;38;34;23
66149;PMS5003;52952;50.904;20.648;2022-08-03T00:42:19;38;34;23
66149;PMS5003;52952;50.904;20.648;2022-08-03T00:49:03;38;34;23
66149;PMS5003;52952;50.904;20.648;2022-08-03T00:56:18;38;34;23
66149;PMS5003;52952;50.904;20.648;2022-08-03T01:00:04;38;34;23
66149;PMS5003;52952;50.904;20.648;2022-08-03T01:07:39;45;38;26
66149;PMS5003;52952;50.904;20.648;2022-08-03T01:14:37;45;38;26
66149;PMS5003;52952;50.904;20.648;2022-08-03T01:21:23;45;38;26
66149;PMS5003;52952;50.904;20.648;2022-08-03T01:35:44;45;38;26
66149;PMS5003;52952;50.904;20.648;2022-08-03T01:42:07;45;38;26
66149;PMS5003;52952;50.904;20.648;2022-08-03T01:49:34;45;38;26
66149;PMS5003;52952;50.904;20.648;2022-08-03T01:56:16;45;38;26
66149;PMS5003;52952;50.904;20.648;2022-08-03T02:00:06;45;38;26
66149;PMS5003;52952;50.904;20.648;2022-08-03T02:07:25;49;41;28
66149;PMS5003;52952;50.904;20.648;2022-08-03T02:14:06;49;41;28
66149;PMS5003;52952;50.904;20.648;2022-08-03T02:21:14;49;41;28
66149;PMS5003;52952;50.904;20.648;2022-08-03T02:28:04;49;41;28
66149;PMS5003;52952;50.904;20.648;2022-08-03T02:35:12;46;38;26
66149;PMS5003;52952;50.904;20.648;2022-08-03T02:42:11;46;38;26
66149;PMS5003;52952;50.904;20.648;2022-08-03T02:49:06;46;38;26
66149;PMS5003;52952;50.904;20.648;2022-08-03T02:56:31;46;38;26
66149;PMS5003;52952;50.904;20.648;2022-08-03T03:00:14;46;38;26
66149;PMS5003;52952;50.904;20.648;2022-08-03T03:07:20;47;39;26
66149;PMS5003;52952;50.904;20.648;2022-08-03T03:14:04;47;39;26
66149;PMS5003;52952;50.904;20.648;2022-08-03T03:21:26;47;39;26
66149;PMS5003;52952;50.904;20.648;2022-08-03T03:28:16;47;39;26
66149;PMS5003;52952;50.904;20.648;2022-08-03T03:35:05;40;35;23
66149;PMS5003;52952;50.904;20.648;2022-08-03T03:42:08;40;35;23
66149;PMS5003;52952;50.904;20.648;2022-08-03T03:49:08;40;35;23
66149;PMS5003;52952;50.904;20.648;2022-08-03T03:56:18;40;35;23
66149;PMS5003;52952;50.904;20.648;2022-08-03T04:00:14;40;35;23
66149;PMS5003;52952;50.904;20.648;2022-08-03T04:14:42;46;38;27
66149;PMS5003;52952;50.904;20.648;2022-08-03T04:21:31;46;38;27
66149;PMS5003;52952;50.904;20.648;2022-08-03T04:28:23;46;38;27
66149;PMS5003;52952;50.904;20.648;2022-08-03T04:35:19;48;40;27
66149;PMS5003;52952;50.904;20.648;2022-08-03T04:42:36;48;40;27
66149;PMS5003;52952;50.904;20.648;2022-08-03T04:49:19;48;40;27
66149;PMS5003;52952;50.904;20.648;2022-08-03T04:56:21;48;40;27
66149;PMS5003;52952;50.904;20.648;2022-08-03T05:00:25;48;40;27
66149;PMS5003;52952;50.904;20.648;2022-08-03T05:07:05;45;39;27
66149;PMS5003;52952;50.904;20.648;2022-08-03T05:14:07;45;39;27
66149;PMS5003;52952;50.904;20.648;2022-08-03T05:21:07;45;39;27
66149;PMS5003;52952;50.904;20.648;2022-08-03T05:28:14;45;39;27
66149;PMS5003;52952;50.904;20.648;2022-08-03T05:35:15;55;46;31
66149;PMS5003;52952;50.904;20.648;2022-08-03T05:42:17;55;46;31
66149;PMS5003;52952;50.904;20.648;2022-08-03T05:49:02;55;46;31
66149;PMS5003;52952;50.904;20.648;2022-08-03T05:56:03;55;46;31
66149;PMS5003;52952;50.904;20.648;2022-08-03T06:00:13;55;46;31
66149;PMS5003;52952;50.904;20.648;2022-08-03T06:07:04;34;32;24
66149;PMS5003;52952;50.904;20.648;2022-08-03T06:14:02;34;32;24
66149;PMS5003;52952;50.904;20.648;2022-08-03T06:21:15;34;32;24
66149;PMS5003;52952;50.904;20.648;2022-08-03T06:28:17;34;32;24
66149;PMS5003;52952;50.904;20.648;2022-08-03T06:35:20;32;31;23
66149;PMS5003;52952;50.904;20.648;2022-08-03T06:42:17;32;31;23
66149;PMS5003;52952;50.904;20.648;2022-08-03T06:49:03;32;31;23
66149;PMS5003;52952;50.904;20.648;2022-08-03T06:56:08;32;31;23
66149;PMS5003;52952;50.904;20.648;2022-08-03T07:00:06;32;31;23
66149;PMS5003;52952;50.904;20.648;2022-08-03T07:07:02;35;32;22
66149;PMS5003;52952;50.904;20.648;2022-08-03T07:14:16;35;32;22
66149;PMS5003;52952;50.904;20.648;2022-08-03T07:21:04;35;32;22
66149;PMS5003;52952;50.904;20.648;2022-08-03T07:28:02;35;32;22
66149;PMS5003;52952;50.904;20.648;2022-08-03T07:42:18;34;32;23
66149;PMS5003;52952;50.904;20.648;2022-08-03T07:49:04;34;32;23
66149;PMS5003;52952;50.904;20.648;2022-08-03T07:56:20;34;32;23
66149;PMS5003;52952;50.904;20.648;2022-08-03T08:00:31;34;32;23
66149;PMS5003;52952;50.904;20.648;2022-08-03T08:14:02;30;29;21
66149;PMS5003;52952;50.904;20.648;2022-08-03T08:21:15;30;29;21
66149;PMS5003;52952;50.904;20.648;2022-08-03T08:28:05;30;29;21
66149;PMS5003;52952;50.904;20.648;2022-08-03T08:35:18;30;29;21
66149;PMS5003;52952;50.904;20.648;2022-08-03T08:42:04;31;30;23
66149;PMS5003;52952;50.904;20.648;2022-08-03T08:49:15;31;30;23
66149;PMS5003;52952;50.904;20.648;2022-08-03T08:56:02;31;30;23
66149;PMS5003;52952;50.904;20.648;2022-08-03T09:00:26;31;30;23
66149;PMS5003;52952;50.904;20.648;2022-08-03T09:14:06;34;31;23
66149;PMS5003;52952;50.904;20.648;2022-08-03T09:21:28;34;31;23
66149;PMS5003;52952;50.904;20.648;2022-08-03T09:28:33;34;31;23
66149;PMS5003;52952;50.904;20.648;2022-08-03T09:35:07;34;31;23
66149;PMS5003;52952;50.904;20.648;2022-08-03T09:42:29;33;30;23
66149;PMS5003;52952;50.904;20.648;2022-08-03T09:49:23;33;30;23
66149;PMS5003;52952;50.904;20.648;2022-08-03T09:56:16;33;30;23
66149;PMS5003;52952;50.904;20.648;2022-08-03T10:00:12;33;30;23
66149;PMS5003;52952;50.904;20.648;2022-08-03T10:14:21;31;30;22
66149;PMS5003;52952;50.904;20.648;2022-08-03T10:21:31;31;30;22
66149;PMS5003;52952;50.904;20.648;2022-08-03T10:28:45;31;30;22
66149;PMS5003;52952;50.904;20.648;2022-08-03T10:35:09;31;30;22
66149;PMS5003;52952;50.904;20.648;2022-08-03T10:42:16;33;31;21
66149;PMS5003;52952;50.904;20.648;2022-08-03T10:49:05;33;31;21
66149;PMS5003;52952;50.904;20.648;2022-08-03T11:00:22;33;31;21
66149;PMS5003;52952;50.904;20.648;2022-08-03T11:14:31;31;30;21
66149;PMS5003;52952;50.904;20.648;2022-08-03T11:21:04;31;30;21
66149;PMS5003;52952;50.904;20.648;2022-08-03T11:28:29;31;30;21
66149;PMS5003;52952;50.904;20.648;2022-08-03T11:35:25;31;30;21
66149;PMS5003;52952;50.904;20.648;2022-08-03T11:43:00;29;29;21
66149;PMS5003;52952;50.904;20.648;2022-08-03T11:49:24;29;29;21
66149;PMS5003;52952;50.904;20.648;2022-08-03T11:56:16;29;29;21
66149;PMS5003;52952;50.904;20.648;2022-08-03T12:00:27;29;29;21
66149;PMS5003;52952;50.904;20.648;2022-08-03T12:07:02;29;29;21
66149;PMS5003;52952;50.904;20.648;2022-08-03T12:14:02;34;32;22
66149;PMS5003;52952;50.904;20.648;2022-08-03T12:21:15;34;32;22
66149;PMS5003;52952;50.904;20.648;2022-08-03T12:28:22;34;32;22
66149;PMS5003;52952;50.904;20.648;2022-08-03T12:35:26;34;32;22
66149;PMS5003;52952;50.904;20.648;2022-08-03T12:42:06;41;37;26
66149;PMS5003;52952;50.904;20.648;2022-08-03T12:49:49;41;37;26
66149;PMS5003;52952;50.904;20.648;2022-08-03T12:56:14;41;37;26
66149;PMS5003;52952;50.904;20.648;2022-08-03T13:00:09;41;37;26
66149;PMS5003;52952;50.904;20.648;2022-08-03T13:07:10;41;37;26
66149;PMS5003;52952;50.904;20.648;2022-08-03T13:14:02;30;29;21
66149;PMS5003;52952;50.904;20.648;2022-08-03T13:21:22;30;29;21
66149;PMS5003;52952;50.904;20.648;2022-08-03T13:28:15;30;29;21
66149;PMS5003;52952;50.904;20.648;2022-08-03T13:35:16;30;29;21
66149;PMS5003;52952;50.904;20.648;2022-08-03T13:42:20;28;28;21
66149;PMS5003;52952;50.904;20.648;2022-08-03T13:49:16;28;28;21
66149;PMS5003;52952;50.904;20.648;2022-08-03T13:56:06;28;28;21
66149;PMS5003;52952;50.904;20.648;2022-08-03T14:00:01;28;28;21
66149;PMS5003;52952;50.904;20.648;2022-08-03T14:07:15;28;28;21
66149;PMS5003;52952;50.904;20.648;2022-08-03T14:14:04;31;30;21
66149;PMS5003;52952;50.904;20.648;2022-08-03T14:21:04;31;30;21
66149;PMS5003;52952;50.904;20.648;2022-08-03T14:28:18;31;30;21
66149;PMS5003;52952;50.904;20.648;2022-08-03T14:35:03;31;30;21
66149;PMS5003;52952;50.904;20.648;2022-08-03T14:42:04;31;29;21
66149;PMS5003;52952;50.904;20.648;2022-08-03T14:49:21;31;29;21
66149;PMS5003;52952;50.904;20.648;2022-08-03T14:56:16;31;29;21
66149;PMS5003;52952;50.904;20.648;2022-08-03T15:00:03;31;29;21
66149;PMS5003;52952;50.904;20.648;2022-08-03T15:07:03;31;29;21
66149;PMS5003;52952;50.904;20.648;2022-08-03T15:14:04;28;28;20
66149;PMS5003;52952;50.904;20.648;2022-08-03T15:21:02;28;28;20
66149;PMS5003;52952;50.904;20.648;2022-08-03T15:28:17;28;28;20
66149;PMS5003;52952;50.904;20.648;2022-08-03T15:35:08;28;28;20
66149;PMS5003;52952;50.904;20.648;2022-08-03T15:49:19;30;30;22
66149;PMS5003;52952;50.904;20.648;2022-08-03T15:56:06;30;30;22
66149;PMS5003;52952;50.904;20.648;2022-08-03T16:00:06;30;30;22
66149;PMS5003;52952;50.904;20.648;2022-08-03T16:07:26;30;30;22
66149;PMS5003;52952;50.904;20.648;2022-08-03T16:21:06;32;31;20
66149;PMS5003;52952;50.904;20.648;2022-08-03T16:28:08;32;31;20
66149;PMS5003;52952;50.904;20.648;2022-08-03T16:35:23;32;31;20
66149;PMS5003;52952;50.904;20.648;2022-08-03T16:49:20;33;30;22
66149;PMS5003;52952;50.904;20.648;2022-08-03T16:56:17;33;30;22
66149;PMS5003;52952;50.904;20.648;2022-08-03T17:00:03;33;30;22
66149;PMS5003;52952;50.904;20.648;2022-08-03T17:07:03;33;30;22
66149;PMS5003;52952;50.904;20.648;2022-08-03T17:21:05;32;29;21
66149;PMS5003;52952;50.904;20.648;2022-08-03T17:28:13;32;29;21
66149;PMS5003;52952;50.904;20.648;2022-08-03T17:35:17;32;29;21
66149;PMS5003;52952;50.904;20.648;2022-08-03T17:49:19;37;34;24
66149;PMS5003;52952;50.904;20.648;2022-08-03T17:56:33;37;34;24
66149;PMS5003;52952;50.904;20.648;2022-08-03T18:07:45;37;34;24
66149;PMS5003;52952;50.904;20.648;2022-08-03T18:21:24;36;33;23
66149;PMS5003;52952;50.904;20.648;2022-08-03T18:28:05;36;33;23
66149;PMS5003;52952;50.904;20.648;2022-08-03T18:35:14;36;33;23
66149;PMS5003;52952;50.904;20.648;2022-08-03T18:49:32;43;36;25
66149;PMS5003;52952;50.904;20.648;2022-08-03T18:56:40;43;36;25
66149;PMS5003;52952;50.904;20.648;2022-08-03T19:00:40;43;36;25
66149;PMS5003;52952;50.904;20.648;2022-08-03T19:07:32;43;36;25
66149;PMS5003;52952;50.904;20.648;2022-08-03T19:21:27;38;33;23
66149;PMS5003;52952;50.904;20.648;2022-08-03T19:28:24;38;33;23
66149;PMS5003;52952;50.904;20.648;2022-08-03T19:35:06;38;33;23
66149;PMS5003;52952;50.904;20.648;2022-08-03T19:42:39;38;33;23
66149;PMS5003;52952;50.904;20.648;2022-08-03T19:49:03;35;33;23
66149;PMS5003;52952;50.904;20.648;2022-08-03T19:56:32;35;33;23
66149;PMS5003;52952;50.904;20.648;2022-08-03T20:00:18;35;33;23
66149;PMS5003;52952;50.904;20.648;2022-08-03T20:07:18;35;33;23
66149;PMS5003;52952;50.904;20.648;2022-08-03T20:21:30;36;33;23
66149;PMS5003;52952;50.904;20.648;2022-08-03T20:28:13;36;33;23
66149;PMS5003;52952;50.904;20.648;2022-08-03T20:35:21;36;33;23
66149;PMS5003;52952;50.904;20.648;2022-08-03T20:42:06;36;33;23
66149;PMS5003;52952;50.904;20.648;2022-08-03T20:49:25;31;30;22
66149;PMS5003;52952;50.904;20.648;2022-08-03T20:56:08;31;30;22
66149;PMS5003;52952;50.904;20.648;2022-08-03T21:00:26;31;30;22
66149;PMS5003;52952;50.904;20.648;2022-08-03T21:07:06;31;30;22
66149;PMS5003;52952;50.904;20.648;2022-08-03T21:21:32;33;32;22
66149;PMS5003;52952;50.904;20.648;2022-08-03T21:28:09;33;32;22
66149;PMS5003;52952;50.904;20.648;2022-08-03T21:35:24;33;32;22
66149;PMS5003;52952;50.904;20.648;2022-08-03T21:49:06;28;28;20
66149;PMS5003;52952;50.904;20.648;2022-08-03T21:56:34;28;28;20
66149;PMS5003;52952;50.904;20.648;2022-08-03T22:00:03;28;28;20
66149;PMS5003;52952;50.904;20.648;2022-08-03T22:07:22;28;28;20
66149;PMS5003;52952;50.904;20.648;2022-08-03T22:14:19;25;25;20
66149;PMS5003;52952;50.904;20.648;2022-08-03T22:21:29;25;25;20
66149;PMS5003;52952;50.904;20.648;2022-08-03T22:28:33;25;25;20
66149;PMS5003;52952;50.904;20.648;2022-08-03T22:35:06;23;23;17
66149;PMS5003;52952;50.904;20.648;2022-08-03T22:42:18;23;23;17
66149;PMS5003;52952;50.904;20.648;2022-08-03T22:49:21;23;23;17
66149;PMS5003;52952;50.904;20.648;2022-08-03T22:56:17;23;23;17
66149;PMS5003;52952;50.904;20.648;2022-08-03T23:07:40;23;23;16
66149;PMS5003;52952;50.904;20.648;2022-08-03T23:14:11;23;23;16
66149;PMS5003;52952;50.904;20.648;2022-08-03T23:21:20;23;23;16
66149;PMS5003;52952;50.904;20.648;2022-08-03T23:28:17;23;23;16
66149;PMS5003;52952;50.904;20.648;2022-08-03T23:42:23;24;23;17
66149;PMS5003;52952;50.904;20.648;2022-08-03T23:49:02;24;23;17
66149;PMS5003;52952;50.904;20.648;2022-08-03T23:56:26;24;23;17
